createdAt,value
2019-02-14T00:01:50.513Z,91.50
2019-02-14T00:04:17.090Z,92.50
2019-02-14T00:06:43.751Z,92.30
2019-02-14T00:09:10.313Z,92.20
2019-02-14T00:11:37.197Z,92.30
2019-02-14T00:14:03.781Z,92.30
2019-02-14T00:16:30.320Z,92.10
2019-02-14T00:18:56.884Z,91.90
2019-02-14T00:21:23.401Z,92.10
2019-02-14T00:23:49.996Z,91.80
2019-02-14T00:26:16.584Z,92.20
2019-02-14T00:28:43.115Z,92.00
2019-02-14T00:31:09.653Z,91.80
2019-02-14T00:33:36.205Z,91.90
2019-02-14T00:36:02.733Z,91.60
2019-02-14T00:38:29.281Z,91.70
2019-02-14T00:40:55.867Z,92.10
2019-02-14T00:43:22.397Z,92.40
2019-02-14T00:45:48.986Z,92.60
2019-02-14T00:48:15.546Z,92.40
2019-02-14T00:50:42.111Z,92.00
2019-02-14T00:53:08.675Z,92.40
2019-02-14T00:55:35.264Z,92.20
2019-02-14T00:58:01.794Z,92.20
2019-02-14T01:00:28.346Z,92.20
2019-02-14T01:02:55.005Z,92.10
2019-02-14T01:05:21.662Z,92.60
2019-02-14T01:07:48.220Z,92.50
2019-02-14T01:10:14.781Z,92.20
2019-02-14T01:12:41.297Z,92.30
2019-02-14T01:15:09.042Z,92.40
2019-02-14T01:17:35.756Z,92.20
2019-02-14T01:20:03.301Z,91.70
2019-02-14T01:22:29.942Z,92.50
2019-02-14T01:24:56.497Z,92.20
2019-02-14T01:27:23.029Z,92.00
2019-02-14T01:29:49.650Z,91.70
2019-02-14T01:32:16.211Z,91.50
2019-02-14T01:34:42.749Z,92.00
2019-02-14T01:37:09.267Z,92.50
2019-02-14T01:39:35.824Z,92.40
2019-02-14T01:42:02.623Z,92.00
2019-02-14T01:44:29.170Z,91.00
2019-02-14T01:46:55.743Z,92.30
2019-02-14T01:49:22.306Z,92.80
2019-02-14T01:51:48.945Z,92.60
2019-02-14T01:54:15.517Z,92.80
2019-02-14T01:56:42.044Z,93.00
2019-02-14T01:59:08.602Z,93.20
2019-02-14T02:01:35.165Z,93.10
2019-02-14T02:04:01.706Z,93.10
2019-02-14T02:06:28.241Z,92.90
2019-02-14T02:08:54.808Z,93.30
2019-02-14T02:11:21.329Z,92.60
2019-02-14T02:13:47.882Z,92.80
2019-02-14T02:16:14.524Z,92.70
2019-02-14T02:18:41.066Z,92.70
2019-02-14T02:21:07.638Z,92.40
2019-02-14T02:23:34.202Z,92.50
2019-02-14T02:26:00.885Z,92.40
2019-02-14T02:28:27.450Z,92.20
2019-02-14T02:30:54.012Z,92.50
2019-02-14T02:33:20.545Z,93.00
2019-02-14T02:35:47.095Z,92.70
2019-02-14T02:38:13.644Z,93.00
2019-02-14T02:40:40.210Z,93.10
2019-02-14T02:43:06.859Z,92.60
2019-02-14T02:45:33.440Z,92.10
2019-02-14T02:47:59.969Z,93.10
2019-02-14T02:50:26.503Z,93.70
2019-02-14T02:52:53.083Z,94.90
2019-02-14T02:55:19.601Z,94.70
2019-02-14T02:57:46.740Z,93.60
2019-02-14T03:00:15.505Z,93.80
2019-02-14T03:02:42.043Z,94.30
2019-02-14T03:05:10.398Z,94.10
2019-02-14T03:07:37.073Z,94.00
2019-02-14T03:10:07.301Z,94.10
2019-02-14T03:12:35.048Z,93.80
2019-02-14T03:15:01.584Z,93.50
2019-02-14T03:17:28.234Z,93.50
2019-02-14T03:19:54.762Z,93.70
2019-02-14T03:22:21.316Z,93.70
2019-02-14T03:24:47.911Z,93.50
2019-02-14T03:27:14.473Z,93.50
2019-02-14T03:29:41.050Z,93.60
2019-02-14T03:32:07.583Z,93.60
2019-02-14T03:34:34.189Z,93.50
2019-02-14T03:37:00.743Z,94.10
2019-02-14T03:39:27.267Z,93.80
2019-02-14T03:41:53.834Z,93.50
2019-02-14T03:44:20.427Z,93.90
2019-02-14T03:46:48.162Z,94.30
2019-02-14T03:49:14.691Z,93.80
2019-02-14T03:51:41.251Z,93.90
2019-02-14T03:54:07.799Z,93.50
2019-02-14T03:56:34.401Z,93.00
2019-02-14T03:59:00.936Z,93.40
2019-02-14T04:01:27.482Z,93.60
2019-02-14T04:03:54.023Z,93.70
2019-02-14T04:06:27.303Z,94.20
2019-02-14T04:08:48.950Z,94.10
2019-02-14T04:11:15.526Z,93.60
2019-02-14T04:13:42.106Z,93.60
2019-02-14T04:16:08.635Z,93.50
2019-02-14T04:18:35.195Z,93.40
2019-02-14T04:21:01.731Z,93.30
2019-02-14T04:23:28.383Z,92.90
2019-02-14T04:25:54.921Z,92.20
2019-02-14T04:28:21.504Z,93.30
2019-02-14T04:30:48.111Z,93.40
2019-02-14T04:33:14.871Z,92.80
2019-02-14T04:35:41.409Z,93.40
2019-02-14T04:38:07.991Z,93.40
2019-02-14T04:40:34.546Z,93.90
2019-02-14T04:43:01.094Z,93.50
2019-02-14T04:45:27.627Z,93.80
2019-02-14T04:47:54.186Z,94.20
2019-02-14T04:50:20.736Z,94.20
2019-02-14T04:52:47.270Z,94.60
2019-02-14T04:55:13.806Z,93.80
2019-02-14T04:57:40.366Z,93.60
2019-02-14T05:00:09.972Z,93.70
2019-02-14T05:02:36.523Z,93.90
2019-02-14T05:05:04.785Z,94.10
2019-02-14T05:07:31.323Z,93.80
2019-02-14T05:09:57.863Z,93.50
2019-02-14T05:12:26.164Z,93.70
2019-02-14T05:14:52.797Z,93.60
2019-02-14T05:17:19.362Z,93.30
2019-02-14T05:19:45.927Z,93.60
2019-02-14T05:22:12.451Z,93.40
2019-02-14T05:24:39.009Z,93.70
2019-02-14T05:27:05.543Z,93.50
2019-02-14T05:29:32.072Z,93.60
2019-02-14T05:31:58.646Z,93.10
2019-02-14T05:34:25.187Z,93.70
2019-02-14T05:36:54.677Z,93.80
2019-02-14T05:39:20.077Z,93.60
2019-02-14T05:41:46.633Z,93.30
2019-02-14T05:44:13.179Z,93.50
2019-02-14T05:46:39.772Z,93.80
2019-02-14T05:49:06.335Z,93.70
2019-02-14T05:51:32.871Z,94.10
2019-02-14T05:53:59.426Z,93.70
2019-02-14T05:56:25.970Z,93.50
2019-02-14T05:58:52.530Z,93.40
2019-02-14T06:01:19.770Z,93.80
2019-02-14T06:03:47.449Z,93.50
2019-02-14T06:06:13.992Z,93.30
2019-02-14T06:08:40.544Z,93.40
2019-02-14T06:11:07.110Z,94.00
2019-02-14T06:13:33.643Z,94.20
2019-02-14T06:16:00.195Z,94.10
2019-02-14T06:18:26.740Z,94.00
2019-02-14T06:20:53.309Z,93.90
2019-02-14T06:23:19.974Z,94.20
2019-02-14T06:25:46.539Z,94.60
2019-02-14T06:28:13.077Z,94.10
2019-02-14T06:30:39.648Z,94.20
2019-02-14T06:33:06.195Z,93.90
2019-02-14T06:35:32.807Z,93.80
2019-02-14T06:37:59.385Z,93.70
2019-02-14T06:40:25.940Z,93.80
2019-02-14T06:42:52.520Z,93.70
2019-02-14T06:45:19.095Z,93.80
2019-02-14T06:47:45.704Z,93.70
2019-02-14T06:50:12.275Z,93.80
2019-02-14T06:52:40.399Z,93.70
2019-02-14T06:55:07.197Z,93.40
2019-02-14T06:57:33.721Z,93.30
2019-02-14T07:00:00.294Z,93.30
2019-02-14T07:02:26.819Z,93.50
2019-02-14T07:04:53.354Z,93.90
2019-02-14T07:07:19.954Z,94.00
2019-02-14T07:09:46.506Z,93.50
2019-02-14T07:12:13.029Z,93.50
2019-02-14T07:14:39.581Z,93.30
2019-02-14T07:17:06.136Z,93.30
2019-02-14T07:19:32.712Z,93.40
2019-02-14T07:22:00.373Z,93.40
2019-02-14T07:24:26.931Z,93.60
2019-02-14T07:26:53.474Z,93.30
2019-02-14T07:29:20.028Z,93.30
2019-02-14T07:31:46.569Z,92.90
2019-02-14T07:34:13.146Z,92.80
2019-02-14T07:36:39.684Z,92.60
2019-02-14T07:39:06.270Z,92.50
2019-02-14T07:41:32.789Z,92.40
2019-02-14T07:43:59.333Z,92.50
2019-02-14T07:46:25.870Z,91.80
2019-02-14T07:48:52.465Z,91.30
2019-02-14T07:51:19.032Z,91.50
2019-02-14T07:53:45.585Z,91.00
2019-02-14T07:56:12.116Z,90.60
2019-02-14T07:58:38.670Z,90.20
2019-02-14T08:01:05.227Z,90.20
2019-02-14T08:03:31.794Z,90.00
2019-02-14T08:05:58.366Z,89.10
2019-02-14T08:08:24.922Z,88.40
2019-02-14T08:10:51.582Z,86.90
2019-02-14T08:13:18.114Z,86.70
2019-02-14T08:15:44.773Z,84.60
2019-02-14T08:18:11.389Z,84.30
2019-02-14T08:20:37.937Z,82.00
2019-02-14T08:23:04.517Z,81.30
2019-02-14T08:25:31.076Z,80.10
2019-02-14T08:27:57.618Z,80.80
2019-02-14T08:30:24.171Z,81.20
2019-02-14T08:32:50.708Z,79.90
2019-02-14T08:35:17.277Z,80.20
2019-02-14T08:37:45.871Z,81.50
2019-02-14T08:40:16.277Z,79.50
2019-02-14T08:42:42.872Z,80.60
2019-02-14T08:45:10.824Z,81.40
2019-02-14T08:47:37.584Z,79.10
2019-02-14T08:50:06.494Z,77.20
2019-02-14T08:52:33.154Z,78.10
2019-02-14T08:54:59.680Z,78.20
2019-02-14T08:57:26.229Z,81.30
2019-02-14T08:59:52.789Z,80.20
2019-02-14T09:02:19.361Z,78.70
2019-02-14T09:04:45.931Z,80.30
2019-02-14T09:07:12.496Z,83.90
2019-02-14T09:09:39.020Z,84.30
2019-02-14T09:12:05.582Z,84.10
2019-02-14T09:14:32.152Z,82.80
2019-02-14T09:16:58.686Z,81.80
2019-02-14T09:19:25.229Z,80.30
2019-02-14T09:21:51.781Z,80.00
2019-02-14T09:24:18.296Z,75.80
2019-02-14T09:26:44.840Z,74.10
2019-02-14T09:29:13.743Z,72.20
2019-02-14T09:31:39.695Z,72.70
2019-02-14T09:34:06.239Z,73.10
2019-02-14T09:36:34.389Z,72.20
2019-02-14T09:39:01.140Z,72.70
2019-02-14T09:41:29.283Z,77.80
2019-02-14T09:43:55.845Z,75.50
2019-02-14T09:46:22.509Z,75.40
2019-02-14T09:48:49.052Z,75.50
2019-02-14T09:51:15.671Z,74.60
2019-02-14T09:53:42.247Z,76.00
2019-02-14T09:56:08.852Z,71.40
2019-02-14T09:58:35.414Z,71.10
2019-02-14T10:01:03.165Z,68.90
2019-02-14T10:03:29.712Z,70.80
2019-02-14T10:05:56.268Z,68.70
2019-02-14T10:08:22.828Z,72.40
2019-02-14T10:10:49.409Z,71.50
2019-02-14T10:13:15.972Z,70.30
2019-02-14T10:15:42.604Z,72.00
2019-02-14T10:18:09.221Z,71.70
2019-02-14T10:20:35.767Z,71.10
2019-02-14T10:23:02.335Z,70.20
2019-02-14T10:25:28.891Z,68.20
2019-02-14T10:27:55.469Z,67.70
2019-02-14T10:30:22.792Z,64.30
2019-02-14T10:32:49.363Z,63.10
2019-02-14T10:35:17.107Z,61.30
2019-02-14T10:37:43.681Z,64.50
2019-02-14T10:40:12.351Z,63.10
2019-02-14T10:42:40.622Z,61.80
2019-02-14T10:45:21.549Z,59.50
2019-02-14T10:47:48.114Z,58.60
2019-02-14T10:50:14.702Z,58.60
2019-02-14T10:52:42.235Z,58.30
2019-02-14T10:55:10.287Z,56.90
2019-02-14T10:57:36.818Z,52.20
2019-02-14T11:00:22.230Z,51.20
2019-02-14T11:02:48.858Z,49.30
2019-02-14T11:05:16.434Z,48.40
2019-02-14T11:07:42.969Z,51.30
2019-02-14T11:10:12.306Z,52.50
2019-02-14T11:12:38.956Z,47.50
2019-02-14T11:15:09.202Z,43.50
2019-02-14T11:17:35.864Z,36.60
2019-02-14T11:20:04.214Z,31.40
2019-02-14T11:22:30.806Z,30.90
2019-02-14T11:24:59.212Z,29.90
2019-02-14T11:27:25.697Z,29.40
2019-02-14T11:29:52.237Z,27.00
2019-02-14T11:32:18.773Z,25.90
2019-02-14T11:34:45.329Z,26.50
2019-02-14T11:37:11.862Z,25.10
2019-02-14T11:39:38.426Z,23.70
2019-02-14T11:42:04.981Z,21.40
2019-02-14T11:44:39.594Z,22.30
2019-02-14T11:46:59.868Z,21.00
2019-02-14T11:49:26.408Z,19.60
2019-02-14T11:51:52.961Z,20.60
2019-02-14T11:54:19.585Z,19.20
2019-02-14T11:56:46.146Z,19.40
2019-02-14T11:59:13.799Z,18.20
2019-02-14T12:01:40.316Z,17.80
2019-02-14T12:04:06.875Z,17.90
2019-02-14T12:06:33.447Z,20.30
2019-02-14T12:09:00.652Z,18.50
2019-02-14T12:11:27.664Z,17.60
2019-02-14T12:13:54.219Z,19.50
2019-02-14T12:16:20.765Z,18.60
2019-02-14T12:18:47.318Z,17.70
2019-02-14T12:21:13.864Z,17.00
2019-02-14T12:23:40.402Z,17.30
2019-02-14T12:26:06.976Z,18.30
2019-02-14T12:28:33.532Z,19.80
2019-02-14T12:31:00.064Z,19.30
2019-02-14T12:33:26.608Z,18.70
2019-02-14T12:35:53.169Z,19.00
2019-02-14T12:38:19.764Z,18.70
2019-02-14T12:40:46.351Z,18.70
2019-02-14T12:43:12.993Z,17.00
2019-02-14T12:45:39.541Z,19.60
2019-02-14T12:48:06.077Z,18.00
2019-02-14T12:50:32.658Z,17.10
2019-02-14T12:52:59.186Z,17.20
2019-02-14T12:55:25.863Z,17.30
2019-02-14T12:57:52.438Z,17.10
2019-02-14T13:00:21.915Z,16.10
2019-02-14T13:02:48.428Z,17.70
2019-02-14T13:05:14.972Z,18.10
2019-02-14T13:07:41.522Z,17.20
2019-02-14T13:10:10.456Z,18.20
2019-02-14T13:12:37.111Z,18.30
2019-02-14T13:15:07.480Z,19.90
2019-02-14T13:17:34.047Z,20.40
2019-02-14T13:20:00.614Z,18.80
2019-02-14T13:22:27.140Z,19.50
2019-02-14T13:24:53.709Z,20.90
2019-02-14T13:27:20.255Z,21.70
2019-02-14T13:29:46.861Z,21.80
2019-02-14T13:32:13.756Z,21.40
2019-02-14T13:34:40.511Z,22.90
2019-02-14T13:37:07.056Z,22.50
2019-02-14T13:39:33.633Z,20.30
2019-02-14T13:42:00.162Z,20.30
2019-02-14T13:44:26.742Z,19.70
2019-02-14T13:46:53.292Z,20.70
2019-02-14T13:49:19.868Z,21.20
2019-02-14T13:51:46.397Z,21.20
2019-02-14T13:54:12.943Z,21.10
2019-02-14T13:56:39.526Z,20.40
2019-02-14T13:59:07.087Z,20.10
2019-02-14T14:01:33.669Z,19.70
2019-02-14T14:04:00.234Z,20.40
2019-02-14T14:06:26.802Z,20.50
2019-02-14T14:08:53.320Z,22.40
2019-02-14T14:11:19.886Z,21.00
2019-02-14T14:13:46.398Z,21.80
2019-02-14T14:16:12.947Z,22.20
2019-02-14T14:18:39.505Z,23.90
2019-02-14T14:21:06.036Z,25.70
2019-02-14T14:23:32.592Z,24.60
2019-02-14T14:25:59.151Z,24.60
2019-02-14T14:28:25.699Z,26.10
2019-02-14T14:30:52.559Z,24.70
2019-02-14T14:33:19.364Z,24.70
2019-02-14T14:35:45.914Z,25.10
2019-02-14T14:38:13.686Z,27.40
2019-02-14T14:40:40.245Z,28.80
2019-02-14T14:43:15.617Z,30.30
2019-02-14T14:45:44.071Z,32.70
2019-02-14T14:48:19.271Z,35.90
2019-02-14T14:50:41.965Z,37.70
2019-02-14T14:53:08.519Z,38.30
2019-02-14T14:55:35.091Z,43.20
2019-02-14T14:58:02.319Z,43.60
2019-02-14T15:00:28.910Z,44.30
2019-02-14T15:02:55.442Z,46.10
2019-02-14T15:05:22.036Z,47.90
2019-02-14T15:07:48.630Z,48.60
2019-02-14T15:10:15.183Z,49.70
2019-02-14T15:12:41.755Z,49.50
2019-02-14T15:15:08.317Z,50.30
2019-02-14T15:17:34.956Z,50.90
2019-02-14T15:20:01.625Z,50.40
2019-02-14T15:22:28.263Z,51.30
2019-02-14T15:24:54.843Z,51.50
2019-02-14T15:27:21.418Z,51.90
2019-02-14T15:29:47.978Z,53.20
2019-02-14T15:34:44.110Z,51.40
2019-02-14T15:37:12.629Z,51.60
2019-02-14T15:39:47.204Z,52.50
2019-02-14T15:42:13.767Z,53.40
2019-02-14T15:44:40.306Z,52.50
2019-02-14T15:47:06.874Z,52.80
2019-02-14T15:49:33.432Z,55.20
2019-02-14T15:52:00.003Z,56.30
2019-02-14T15:54:26.577Z,56.10
2019-02-14T15:56:53.654Z,57.90
2019-02-14T15:59:21.509Z,56.60
2019-02-14T16:01:48.142Z,57.50
2019-02-14T16:04:14.814Z,60.90
2019-02-14T16:06:41.344Z,59.80
2019-02-14T16:09:07.930Z,59.40
2019-02-14T16:11:36.449Z,61.20
2019-02-14T16:14:02.991Z,61.30
2019-02-14T16:16:29.526Z,62.60
2019-02-14T16:18:56.091Z,60.80
2019-02-14T16:21:22.627Z,62.80
2019-02-14T16:23:50.960Z,63.60
2019-02-14T16:26:17.701Z,62.60
2019-02-14T16:28:44.258Z,63.60
2019-02-14T16:31:10.817Z,64.90
2019-02-14T16:33:37.496Z,64.70
2019-02-14T16:36:04.083Z,66.70
2019-02-14T16:38:30.738Z,68.50
2019-02-14T16:40:57.352Z,68.60
2019-02-14T16:43:23.898Z,69.20
2019-02-14T16:45:50.750Z,69.40
2019-02-14T16:48:17.314Z,71.90
2019-02-14T16:50:43.914Z,73.70
2019-02-14T16:53:10.454Z,72.30
2019-02-14T16:55:37.027Z,71.80
2019-02-14T16:58:03.548Z,71.30
2019-02-14T17:00:30.158Z,72.70
2019-02-14T17:02:56.714Z,71.80
2019-02-14T17:05:23.237Z,72.10
2019-02-14T17:07:49.816Z,73.90
2019-02-14T17:10:16.354Z,73.20
2019-02-14T17:12:42.938Z,71.30
2019-02-14T17:15:09.505Z,73.00
2019-02-14T17:17:36.076Z,71.90
2019-02-14T17:20:07.245Z,73.80
2019-02-14T17:22:33.989Z,74.40
2019-02-14T17:25:00.563Z,76.70
2019-02-14T17:27:27.148Z,75.70
2019-02-14T17:29:53.702Z,76.60
2019-02-14T17:32:20.280Z,77.20
2019-02-14T17:34:46.830Z,77.80
2019-02-14T17:37:13.400Z,78.90
2019-02-14T17:39:39.974Z,78.40
2019-02-14T17:42:06.515Z,78.20
2019-02-14T17:44:33.101Z,78.40
2019-02-14T17:46:59.644Z,79.50
2019-02-14T17:49:26.227Z,79.50
2019-02-14T17:51:52.876Z,80.00
2019-02-14T17:54:19.442Z,80.10
2019-02-14T17:56:46.001Z,80.60
2019-02-14T17:59:12.564Z,79.80
2019-02-14T18:01:39.165Z,79.40
2019-02-14T18:04:05.719Z,79.60
2019-02-14T18:06:32.386Z,80.90
2019-02-14T18:08:59.033Z,80.30
2019-02-14T18:11:25.592Z,80.20
2019-02-14T18:13:52.178Z,82.40
2019-02-14T18:16:18.769Z,80.60
2019-02-14T18:18:45.347Z,80.10
2019-02-14T18:21:11.925Z,82.10
2019-02-14T18:23:38.627Z,83.50
2019-02-14T18:26:05.287Z,84.00
2019-02-14T18:28:32.076Z,83.30
2019-02-14T18:30:58.633Z,83.60
2019-02-14T18:33:25.318Z,84.70
2019-02-14T18:35:51.926Z,84.50
2019-02-14T18:38:18.575Z,84.60
2019-02-14T18:40:45.116Z,84.30
2019-02-14T18:43:11.695Z,85.30
2019-02-14T18:45:38.281Z,85.50
2019-02-14T18:48:05.018Z,83.90
2019-02-14T18:50:32.706Z,85.70
2019-02-14T18:52:59.356Z,87.20
2019-02-14T18:55:25.939Z,87.50
2019-02-14T18:57:52.473Z,88.70
2019-02-14T19:00:19.642Z,86.90
2019-02-14T19:02:46.490Z,88.10
2019-02-14T19:05:13.246Z,88.30
2019-02-14T19:07:39.947Z,89.00
2019-02-14T19:10:15.882Z,87.40
2019-02-14T19:12:44.781Z,86.70
2019-02-14T19:15:12.636Z,86.90
2019-02-14T19:17:39.294Z,87.50
2019-02-14T19:20:08.393Z,88.40
2019-02-14T19:22:35.082Z,88.70
2019-02-14T19:25:01.774Z,88.70
2019-02-14T19:27:29.637Z,88.00
2019-02-14T19:29:56.303Z,88.80
2019-02-14T19:32:22.833Z,89.30
2019-02-14T19:34:49.402Z,89.20
2019-02-14T19:37:15.951Z,87.50
2019-02-14T19:39:42.578Z,88.70
2019-02-14T19:42:09.246Z,90.10
2019-02-14T19:44:35.818Z,89.60
2019-02-14T19:47:02.474Z,89.60
2019-02-14T19:49:29.118Z,88.40
2019-02-14T19:51:55.757Z,88.40
2019-02-14T19:54:22.439Z,87.20
2019-02-14T19:56:49.143Z,89.40
2019-02-14T19:59:15.669Z,89.10
2019-02-14T20:01:42.226Z,88.50
2019-02-14T20:04:08.844Z,89.30
2019-02-14T20:06:35.530Z,90.00
2019-02-14T20:09:02.352Z,89.00
2019-02-14T20:11:36.541Z,89.70
2019-02-14T20:13:59.186Z,89.40
2019-02-14T20:16:25.767Z,90.50
2019-02-14T20:18:52.370Z,90.40
2019-02-14T20:21:18.975Z,90.10
2019-02-14T20:23:45.574Z,89.60
2019-02-14T20:26:14.058Z,89.40
2019-02-14T20:28:40.644Z,90.10
2019-02-14T20:31:07.209Z,90.50
2019-02-14T20:33:33.783Z,90.10
2019-02-14T20:36:00.337Z,91.10
2019-02-14T21:09:38.489Z,35.40
2019-02-14T21:26:15.761Z,28.20
2019-02-14T21:28:42.343Z,29.10
2019-02-14T21:37:30.941Z,26.20
2019-02-14T21:39:59.498Z,50.70
2019-02-14T21:42:29.379Z,72.60
2019-02-14T21:44:54.896Z,81.80
2019-02-14T21:47:21.557Z,85.00
2019-02-14T21:49:48.218Z,86.50
2019-02-14T21:52:15.899Z,87.30
2019-02-14T21:54:42.438Z,89.20
2019-02-14T21:57:09.012Z,90.50
2019-02-14T21:59:35.671Z,91.20
2019-02-14T22:02:06.086Z,91.00
2019-02-14T22:04:31.976Z,91.30
2019-02-14T22:06:58.679Z,90.40
2019-02-14T22:09:25.306Z,90.70
2019-02-14T22:11:51.860Z,91.20
2019-02-14T22:14:18.464Z,91.70
2019-02-14T22:16:45.025Z,92.50
2019-02-14T22:19:11.571Z,92.80
2019-02-14T22:21:38.141Z,93.70
2019-02-14T22:24:04.706Z,93.80
2019-02-14T22:26:31.267Z,92.90
2019-02-14T22:28:57.827Z,92.40
2019-02-14T22:31:24.363Z,92.80
2019-02-14T22:33:51.013Z,92.90
2019-02-14T22:36:17.590Z,92.10
2019-02-14T22:38:44.146Z,92.30
2019-02-14T22:41:10.696Z,93.10
2019-02-14T22:43:37.283Z,94.20
2019-02-14T22:46:03.868Z,94.20
2019-02-14T22:48:30.432Z,94.10
2019-02-14T22:50:56.999Z,94.40
2019-02-14T22:53:23.548Z,93.90
2019-02-14T22:55:50.095Z,93.60
2019-02-14T22:58:16.657Z,93.30
2019-02-14T23:00:46.845Z,93.50
2019-02-14T23:03:14.217Z,93.30
2019-02-14T23:05:40.893Z,93.10
2019-02-14T23:08:07.430Z,93.90
2019-02-14T23:10:33.981Z,94.00
2019-02-14T23:13:00.630Z,93.90
2019-02-14T23:15:27.165Z,94.20
2019-02-14T23:17:54.844Z,93.90
2019-02-14T23:20:21.409Z,93.40
2019-02-14T23:22:47.975Z,93.10
2019-02-14T23:25:14.547Z,93.60
2019-02-14T23:27:41.104Z,94.50
2019-02-14T23:30:11.154Z,93.90
2019-02-14T23:32:37.712Z,93.00
2019-02-14T23:35:04.248Z,92.90
2019-02-14T23:37:30.823Z,93.50
2019-02-14T23:39:57.423Z,94.70
2019-02-14T23:42:24.088Z,94.30
2019-02-14T23:44:51.613Z,94.50
2019-02-14T23:47:18.160Z,95.10
2019-02-14T23:49:44.730Z,95.20
2019-02-14T23:52:11.269Z,95.70
2019-02-14T23:54:37.807Z,95.80
2019-02-14T23:57:04.344Z,95.60
2019-02-14T23:59:30.882Z,95.40
